LiveATC.Net - Listen to live air traffic control over the Internet!


ICAO: OBBI  IATA: BAH   Airport: Bahrain International Airport
City: Muharraq
Country: Bahrain   Continent: Asia
OBBI METAR Weather: OBBI 251230Z 34009KT 310V010 8000 34/24 Q1005 NOSIG
OBBI Flight Activity (FlightAware)

OBBI Gnd/Twr/App
Feed Status: UP   Listeners: 6
Listen in your browser - HTML5 player (in browser, HTML5)
Click here to listen with your own player (launches your MP3 player)
Archive Access: OBBI Gnd/Twr/App
FacilityFrequency
Bahrain Arrival127.850
Bahrain Control (Low Central)124.300
Bahrain Control (Low East)125.700
Bahrain Control (Low North)126.700
Bahrain Departure119.100
Bahrain Ground121.850
Bahrain Tower118.500

NOTICE

Unauthorized use prohibited. See LiveATC.net Terms of Service


Airport/ARTCC Code
Frequency Search
(e.g., 124.400, 128.75)
Site-wide search
 


Browse Feeds
Top 50 Feeds
HF Oceanic Feeds
Coverage Map
Bad Weather Areas

LiveATC FAQ
Offer LiveATC feed
Contact LiveATC.net
Press Inquiries

LiveATC on iPhone
LiveATC on Android

Windows Phone
Windows 8/10

LiveATC Mobile
(Mobile browser)

ATC Audio Archives
Interesting Recordings

LiveATC Forums


Home Page
About LiveATC.net
Make a Donation
Terms of Use
Privacy Policy

Canadian Air Freqs

AIRMETs/SIGMETs

FAA Airport Status
NAS Status
Arrival Demand


Server Software By:
Icecast.org
Liquidsoap